sensor_id;sensor_type;location;lat;lon;timestamp;P1;durP1;ratioP1;P2;durP2;ratioP2
10389;SDS011;5241;47.830;12.972;2022-10-13T00:01:05;23.93;;;17.40;;
10389;SDS011;5241;47.830;12.972;2022-10-13T00:03:39;22.50;;;18.63;;
10389;SDS011;5241;47.830;12.972;2022-10-13T00:06:06;24.33;;;18.37;;
10389;SDS011;5241;47.830;12.972;2022-10-13T00:08:33;30.83;;;17.03;;
10389;SDS011;5241;47.830;12.972;2022-10-13T00:10:59;20.57;;;17.37;;
10389;SDS011;5241;47.830;12.972;2022-10-13T00:13:25;21.83;;;16.83;;
10389;SDS011;5241;47.830;12.972;2022-10-13T00:15:51;26.13;;;19.77;;
10389;SDS011;5241;47.830;12.972;2022-10-13T00:18:17;33.00;;;20.57;;
10389;SDS011;5241;47.830;12.972;2022-10-13T00:20:46;26.40;;;18.50;;
10389;SDS011;5241;47.830;12.972;2022-10-13T00:23:13;28.47;;;18.73;;
10389;SDS011;5241;47.830;12.972;2022-10-13T00:25:43;21.03;;;17.83;;
10389;SDS011;5241;47.830;12.972;2022-10-13T00:28:11;24.77;;;16.77;;
10389;SDS011;5241;47.830;12.972;2022-10-13T00:30:38;22.43;;;17.63;;
10389;SDS011;5241;47.830;12.972;2022-10-13T00:33:04;19.83;;;17.27;;
10389;SDS011;5241;47.830;12.972;2022-10-13T00:35:30;25.13;;;17.30;;
10389;SDS011;5241;47.830;12.972;2022-10-13T00:37:56;22.63;;;15.77;;
10389;SDS011;5241;47.830;12.972;2022-10-13T00:40:21;19.40;;;16.27;;
10389;SDS011;5241;47.830;12.972;2022-10-13T00:42:47;20.70;;;17.13;;
10389;SDS011;5241;47.830;12.972;2022-10-13T00:45:23;22.13;;;17.40;;
10389;SDS011;5241;47.830;12.972;2022-10-13T00:47:51;23.90;;;18.37;;
10389;SDS011;5241;47.830;12.972;2022-10-13T00:50:22;21.20;;;18.00;;
10389;SDS011;5241;47.830;12.972;2022-10-13T00:52:52;22.87;;;16.90;;
10389;SDS011;5241;47.830;12.972;2022-10-13T00:55:21;21.13;;;16.73;;
10389;SDS011;5241;47.830;12.972;2022-10-13T00:57:49;23.03;;;17.27;;
10389;SDS011;5241;47.830;12.972;2022-10-13T01:00:20;21.20;;;17.10;;
10389;SDS011;5241;47.830;12.972;2022-10-13T01:02:46;22.37;;;17.77;;
10389;SDS011;5241;47.830;12.972;2022-10-13T01:05:12;19.43;;;16.30;;
10389;SDS011;5241;47.830;12.972;2022-10-13T01:07:38;25.60;;;16.77;;
10389;SDS011;5241;47.830;12.972;2022-10-13T01:10:04;27.50;;;17.13;;
10389;SDS011;5241;47.830;12.972;2022-10-13T01:12:46;21.77;;;16.67;;
10389;SDS011;5241;47.830;12.972;2022-10-13T01:18:02;24.60;;;17.67;;
10389;SDS011;5241;47.830;12.972;2022-10-13T01:29:10;16.47;;;13.67;;
10389;SDS011;5241;47.830;12.972;2022-10-13T01:32:11;20.10;;;13.23;;
10389;SDS011;5241;47.830;12.972;2022-10-13T01:34:55;15.77;;;12.17;;
10389;SDS011;5241;47.830;12.972;2022-10-13T01:37:41;14.70;;;10.93;;
10389;SDS011;5241;47.830;12.972;2022-10-13T01:40:37;12.13;;;10.40;;
10389;SDS011;5241;47.830;12.972;2022-10-13T01:43:16;19.03;;;10.97;;
10389;SDS011;5241;47.830;12.972;2022-10-13T01:45:54;13.77;;;9.97;;
10389;SDS011;5241;47.830;12.972;2022-10-13T01:48:26;13.10;;;10.80;;
10389;SDS011;5241;47.830;12.972;2022-10-13T01:50:53;17.47;;;11.60;;
10389;SDS011;5241;47.830;12.972;2022-10-13T01:53:21;13.67;;;10.23;;
10389;SDS011;5241;47.830;12.972;2022-10-13T01:55:52;18.27;;;10.67;;
10389;SDS011;5241;47.830;12.972;2022-10-13T01:58:19;15.10;;;10.70;;
10389;SDS011;5241;47.830;12.972;2022-10-13T02:00:56;14.20;;;10.20;;
10389;SDS011;5241;47.830;12.972;2022-10-13T02:06:21;15.63;;;10.50;;
10389;SDS011;5241;47.830;12.972;2022-10-13T02:11:25;17.23;;;10.73;;
10389;SDS011;5241;47.830;12.972;2022-10-13T02:13:55;16.53;;;11.67;;
10389;SDS011;5241;47.830;12.972;2022-10-13T02:16:33;16.57;;;12.80;;
10389;SDS011;5241;47.830;12.972;2022-10-13T02:19:03;18.07;;;13.13;;
10389;SDS011;5241;47.830;12.972;2022-10-13T02:21:30;17.27;;;13.53;;
10389;SDS011;5241;47.830;12.972;2022-10-13T02:23:56;19.40;;;14.57;;
10389;SDS011;5241;47.830;12.972;2022-10-13T02:26:22;22.57;;;15.67;;
10389;SDS011;5241;47.830;12.972;2022-10-13T02:28:48;21.90;;;14.37;;
10389;SDS011;5241;47.830;12.972;2022-10-13T02:31:14;21.07;;;14.60;;
10389;SDS011;5241;47.830;12.972;2022-10-13T02:33:40;19.70;;;14.30;;
10389;SDS011;5241;47.830;12.972;2022-10-13T02:36:05;23.77;;;15.77;;
10389;SDS011;5241;47.830;12.972;2022-10-13T02:38:31;19.47;;;15.23;;
10389;SDS011;5241;47.830;12.972;2022-10-13T02:40:57;24.43;;;17.80;;
10389;SDS011;5241;47.830;12.972;2022-10-13T02:43:24;25.33;;;17.07;;
10389;SDS011;5241;47.830;12.972;2022-10-13T02:45:49;26.30;;;16.70;;
10389;SDS011;5241;47.830;12.972;2022-10-13T02:48:15;23.47;;;16.23;;
10389;SDS011;5241;47.830;12.972;2022-10-13T02:50:41;24.87;;;17.17;;
10389;SDS011;5241;47.830;12.972;2022-10-13T02:53:06;25.90;;;18.40;;
10389;SDS011;5241;47.830;12.972;2022-10-13T02:55:32;25.63;;;17.97;;
10389;SDS011;5241;47.830;12.972;2022-10-13T02:57:57;23.67;;;16.93;;
10389;SDS011;5241;47.830;12.972;2022-10-13T03:00:23;27.10;;;17.37;;
10389;SDS011;5241;47.830;12.972;2022-10-13T03:02:49;23.37;;;17.00;;
10389;SDS011;5241;47.830;12.972;2022-10-13T03:05:14;25.23;;;17.50;;
10389;SDS011;5241;47.830;12.972;2022-10-13T03:07:40;25.37;;;16.93;;
10389;SDS011;5241;47.830;12.972;2022-10-13T03:10:05;21.97;;;16.57;;
10389;SDS011;5241;47.830;12.972;2022-10-13T03:12:31;21.57;;;15.47;;
10389;SDS011;5241;47.830;12.972;2022-10-13T03:14:57;20.67;;;15.63;;
10389;SDS011;5241;47.830;12.972;2022-10-13T03:17:22;24.40;;;16.27;;
10389;SDS011;5241;47.830;12.972;2022-10-13T03:19:48;25.50;;;17.17;;
10389;SDS011;5241;47.830;12.972;2022-10-13T03:22:14;27.23;;;17.10;;
10389;SDS011;5241;47.830;12.972;2022-10-13T03:24:39;28.90;;;18.77;;
10389;SDS011;5241;47.830;12.972;2022-10-13T03:27:05;30.83;;;20.33;;
10389;SDS011;5241;47.830;12.972;2022-10-13T03:29:31;35.00;;;21.30;;
10389;SDS011;5241;47.830;12.972;2022-10-13T03:31:57;39.40;;;22.70;;
10389;SDS011;5241;47.830;12.972;2022-10-13T03:34:23;36.73;;;22.10;;
10389;SDS011;5241;47.830;12.972;2022-10-13T03:36:49;32.87;;;19.97;;
10389;SDS011;5241;47.830;12.972;2022-10-13T03:39:14;28.70;;;19.27;;
10389;SDS011;5241;47.830;12.972;2022-10-13T03:41:40;28.13;;;18.13;;
10389;SDS011;5241;47.830;12.972;2022-10-13T03:44:06;25.43;;;17.80;;
10389;SDS011;5241;47.830;12.972;2022-10-13T03:46:31;31.50;;;19.60;;
10389;SDS011;5241;47.830;12.972;2022-10-13T03:48:57;29.60;;;18.17;;
10389;SDS011;5241;47.830;12.972;2022-10-13T03:51:23;33.17;;;18.67;;
10389;SDS011;5241;47.830;12.972;2022-10-13T03:53:49;29.70;;;18.63;;
10389;SDS011;5241;47.830;12.972;2022-10-13T03:56:17;33.23;;;19.27;;
10389;SDS011;5241;47.830;12.972;2022-10-13T03:58:44;33.40;;;18.07;;
10389;SDS011;5241;47.830;12.972;2022-10-13T04:01:10;33.90;;;19.50;;
10389;SDS011;5241;47.830;12.972;2022-10-13T04:03:37;27.77;;;18.10;;
10389;SDS011;5241;47.830;12.972;2022-10-13T04:06:03;29.63;;;18.80;;
10389;SDS011;5241;47.830;12.972;2022-10-13T04:08:30;26.90;;;17.77;;
10389;SDS011;5241;47.830;12.972;2022-10-13T04:11:05;29.87;;;17.67;;
10389;SDS011;5241;47.830;12.972;2022-10-13T04:13:32;26.00;;;17.50;;
10389;SDS011;5241;47.830;12.972;2022-10-13T04:16:05;25.87;;;16.80;;
10389;SDS011;5241;47.830;12.972;2022-10-13T04:18:33;30.57;;;18.33;;
10389;SDS011;5241;47.830;12.972;2022-10-13T04:20:59;31.17;;;18.07;;
10389;SDS011;5241;47.830;12.972;2022-10-13T04:23:25;27.93;;;17.33;;
10389;SDS011;5241;47.830;12.972;2022-10-13T04:25:51;28.63;;;17.13;;
10389;SDS011;5241;47.830;12.972;2022-10-13T04:28:16;25.27;;;15.63;;
10389;SDS011;5241;47.830;12.972;2022-10-13T04:30:42;22.00;;;14.53;;
10389;SDS011;5241;47.830;12.972;2022-10-13T04:33:08;23.00;;;15.33;;
10389;SDS011;5241;47.830;12.972;2022-10-13T04:35:38;17.57;;;13.67;;
10389;SDS011;5241;47.830;12.972;2022-10-13T04:38:04;29.93;;;15.37;;
10389;SDS011;5241;47.830;12.972;2022-10-13T04:40:30;20.37;;;14.20;;
10389;SDS011;5241;47.830;12.972;2022-10-13T04:42:56;18.73;;;13.20;;
10389;SDS011;5241;47.830;12.972;2022-10-13T04:45:21;20.73;;;14.73;;
10389;SDS011;5241;47.830;12.972;2022-10-13T04:47:47;20.57;;;15.27;;
10389;SDS011;5241;47.830;12.972;2022-10-13T04:50:12;20.97;;;14.87;;
10389;SDS011;5241;47.830;12.972;2022-10-13T04:52:38;25.57;;;16.93;;
10389;SDS011;5241;47.830;12.972;2022-10-13T04:55:03;29.77;;;17.00;;
10389;SDS011;5241;47.830;12.972;2022-10-13T04:57:29;25.40;;;16.73;;
10389;SDS011;5241;47.830;12.972;2022-10-13T04:59:55;24.83;;;17.47;;
10389;SDS011;5241;47.830;12.972;2022-10-13T05:02:20;27.83;;;16.83;;
10389;SDS011;5241;47.830;12.972;2022-10-13T05:04:46;22.83;;;16.67;;
10389;SDS011;5241;47.830;12.972;2022-10-13T05:07:11;23.37;;;16.97;;
10389;SDS011;5241;47.830;12.972;2022-10-13T05:09:37;24.93;;;16.23;;
10389;SDS011;5241;47.830;12.972;2022-10-13T05:12:03;20.87;;;15.77;;
10389;SDS011;5241;47.830;12.972;2022-10-13T05:14:28;23.30;;;16.30;;
10389;SDS011;5241;47.830;12.972;2022-10-13T05:16:56;22.43;;;14.87;;
10389;SDS011;5241;47.830;12.972;2022-10-13T05:19:21;24.00;;;14.63;;
10389;SDS011;5241;47.830;12.972;2022-10-13T05:21:47;19.80;;;13.77;;
10389;SDS011;5241;47.830;12.972;2022-10-13T05:24:12;21.73;;;14.90;;
10389;SDS011;5241;47.830;12.972;2022-10-13T05:26:40;20.60;;;13.80;;
10389;SDS011;5241;47.830;12.972;2022-10-13T05:29:05;19.43;;;13.13;;
10389;SDS011;5241;47.830;12.972;2022-10-13T05:31:32;22.90;;;14.80;;
10389;SDS011;5241;47.830;12.972;2022-10-13T05:34:00;25.33;;;14.13;;
10389;SDS011;5241;47.830;12.972;2022-10-13T05:38:55;19.43;;;14.27;;
10389;SDS011;5241;47.830;12.972;2022-10-13T05:41:23;19.77;;;14.23;;
10389;SDS011;5241;47.830;12.972;2022-10-13T05:43:50;22.37;;;14.90;;
10389;SDS011;5241;47.830;12.972;2022-10-13T05:46:24;27.00;;;17.17;;
10389;SDS011;5241;47.830;12.972;2022-10-13T05:48:50;24.07;;;15.80;;
10389;SDS011;5241;47.830;12.972;2022-10-13T05:51:17;21.80;;;15.17;;
10389;SDS011;5241;47.830;12.972;2022-10-13T05:53:47;20.73;;;15.37;;
10389;SDS011;5241;47.830;12.972;2022-10-13T05:56:20;23.83;;;15.87;;
10389;SDS011;5241;47.830;12.972;2022-10-13T05:58:50;22.97;;;15.73;;
10389;SDS011;5241;47.830;12.972;2022-10-13T06:01:20;23.63;;;16.07;;
10389;SDS011;5241;47.830;12.972;2022-10-13T06:03:48;32.93;;;18.80;;
10389;SDS011;5241;47.830;12.972;2022-10-13T06:06:17;21.87;;;16.37;;
10389;SDS011;5241;47.830;12.972;2022-10-13T06:08:43;28.87;;;17.20;;
10389;SDS011;5241;47.830;12.972;2022-10-13T06:11:08;29.53;;;18.00;;
10389;SDS011;5241;47.830;12.972;2022-10-13T06:13:34;26.43;;;17.53;;
10389;SDS011;5241;47.830;12.972;2022-10-13T06:15:59;22.27;;;16.30;;
10389;SDS011;5241;47.830;12.972;2022-10-13T06:18:25;24.13;;;16.83;;
10389;SDS011;5241;47.830;12.972;2022-10-13T06:20:51;31.53;;;19.43;;
10389;SDS011;5241;47.830;12.972;2022-10-13T06:23:17;35.13;;;20.20;;
10389;SDS011;5241;47.830;12.972;2022-10-13T06:25:46;29.90;;;19.43;;
10389;SDS011;5241;47.830;12.972;2022-10-13T06:28:15;26.17;;;19.17;;
10389;SDS011;5241;47.830;12.972;2022-10-13T06:30:43;32.10;;;20.63;;
10389;SDS011;5241;47.830;12.972;2022-10-13T06:33:12;30.00;;;20.77;;
10389;SDS011;5241;47.830;12.972;2022-10-13T06:35:37;23.07;;;18.10;;
10389;SDS011;5241;47.830;12.972;2022-10-13T06:38:03;22.43;;;17.43;;
10389;SDS011;5241;47.830;12.972;2022-10-13T06:40:29;22.60;;;17.73;;
10389;SDS011;5241;47.830;12.972;2022-10-13T06:42:54;17.73;;;14.57;;
10389;SDS011;5241;47.830;12.972;2022-10-13T06:45:20;16.40;;;14.33;;
10389;SDS011;5241;47.830;12.972;2022-10-13T06:47:45;18.77;;;14.00;;
10389;SDS011;5241;47.830;12.972;2022-10-13T06:50:11;16.10;;;12.83;;
10389;SDS011;5241;47.830;12.972;2022-10-13T06:52:37;16.80;;;13.27;;
10389;SDS011;5241;47.830;12.972;2022-10-13T06:55:03;17.47;;;13.30;;
10389;SDS011;5241;47.830;12.972;2022-10-13T06:57:29;15.03;;;13.27;;
10389;SDS011;5241;47.830;12.972;2022-10-13T06:59:54;15.17;;;12.63;;
10389;SDS011;5241;47.830;12.972;2022-10-13T07:02:20;16.50;;;13.13;;
10389;SDS011;5241;47.830;12.972;2022-10-13T07:04:46;14.63;;;10.93;;
10389;SDS011;5241;47.830;12.972;2022-10-13T07:07:12;14.00;;;9.73;;
10389;SDS011;5241;47.830;12.972;2022-10-13T07:09:38;14.03;;;10.93;;
10389;SDS011;5241;47.830;12.972;2022-10-13T07:12:03;11.40;;;8.97;;
10389;SDS011;5241;47.830;12.972;2022-10-13T07:14:29;12.80;;;9.23;;
10389;SDS011;5241;47.830;12.972;2022-10-13T07:16:54;11.90;;;8.77;;
10389;SDS011;5241;47.830;12.972;2022-10-13T07:19:20;14.27;;;8.10;;
10389;SDS011;5241;47.830;12.972;2022-10-13T07:21:46;12.30;;;8.07;;
10389;SDS011;5241;47.830;12.972;2022-10-13T07:24:12;15.00;;;7.57;;
10389;SDS011;5241;47.830;12.972;2022-10-13T07:26:37;11.37;;;6.73;;
10389;SDS011;5241;47.830;12.972;2022-10-13T07:29:03;13.23;;;6.40;;
10389;SDS011;5241;47.830;12.972;2022-10-13T07:31:29;11.33;;;6.87;;
10389;SDS011;5241;47.830;12.972;2022-10-13T07:33:54;13.17;;;6.00;;
10389;SDS011;5241;47.830;12.972;2022-10-13T07:36:23;12.47;;;6.53;;
10389;SDS011;5241;47.830;12.972;2022-10-13T07:38:49;8.30;;;5.87;;
10389;SDS011;5241;47.830;12.972;2022-10-13T07:41:14;9.47;;;5.83;;
10389;SDS011;5241;47.830;12.972;2022-10-13T07:43:40;9.13;;;5.83;;
10389;SDS011;5241;47.830;12.972;2022-10-13T07:46:06;8.80;;;5.27;;
10389;SDS011;5241;47.830;12.972;2022-10-13T07:48:32;6.97;;;5.17;;
10389;SDS011;5241;47.830;12.972;2022-10-13T07:51:01;9.13;;;4.73;;
10389;SDS011;5241;47.830;12.972;2022-10-13T07:53:29;10.00;;;4.97;;
10389;SDS011;5241;47.830;12.972;2022-10-13T07:55:58;7.63;;;4.63;;
10389;SDS011;5241;47.830;12.972;2022-10-13T07:58:24;7.80;;;4.77;;
10389;SDS011;5241;47.830;12.972;2022-10-13T08:00:56;5.83;;;4.60;;
10389;SDS011;5241;47.830;12.972;2022-10-13T08:03:23;6.57;;;4.93;;
10389;SDS011;5241;47.830;12.972;2022-10-13T08:05:49;6.57;;;4.33;;
10389;SDS011;5241;47.830;12.972;2022-10-13T08:08:14;5.50;;;4.47;;
10389;SDS011;5241;47.830;12.972;2022-10-13T08:10:40;8.00;;;4.37;;
10389;SDS011;5241;47.830;12.972;2022-10-13T08:13:05;6.13;;;4.70;;
10389;SDS011;5241;47.830;12.972;2022-10-13T08:15:31;9.50;;;4.17;;
10389;SDS011;5241;47.830;12.972;2022-10-13T08:17:56;5.53;;;4.23;;
10389;SDS011;5241;47.830;12.972;2022-10-13T08:20:22;7.20;;;4.50;;
10389;SDS011;5241;47.830;12.972;2022-10-13T08:22:47;7.67;;;5.10;;
10389;SDS011;5241;47.830;12.972;2022-10-13T08:25:13;10.83;;;4.67;;
10389;SDS011;5241;47.830;12.972;2022-10-13T08:27:38;5.60;;;4.37;;
10389;SDS011;5241;47.830;12.972;2022-10-13T08:30:04;6.30;;;4.43;;
10389;SDS011;5241;47.830;12.972;2022-10-13T08:32:30;7.63;;;4.23;;
10389;SDS011;5241;47.830;12.972;2022-10-13T08:34:56;6.90;;;4.40;;
10389;SDS011;5241;47.830;12.972;2022-10-13T08:37:21;7.27;;;4.47;;
10389;SDS011;5241;47.830;12.972;2022-10-13T08:39:47;7.97;;;4.30;;
10389;SDS011;5241;47.830;12.972;2022-10-13T08:42:13;8.60;;;4.47;;
10389;SDS011;5241;47.830;12.972;2022-10-13T08:44:43;8.70;;;4.73;;
10389;SDS011;5241;47.830;12.972;2022-10-13T08:50:12;7.63;;;4.20;;
10389;SDS011;5241;47.830;12.972;2022-10-13T08:55:27;11.23;;;5.40;;
10389;SDS011;5241;47.830;12.972;2022-10-13T08:58:00;7.63;;;5.17;;
10389;SDS011;5241;47.830;12.972;2022-10-13T09:00:27;6.50;;;5.73;;
10389;SDS011;5241;47.830;12.972;2022-10-13T09:02:53;7.90;;;7.00;;
10389;SDS011;5241;47.830;12.972;2022-10-13T09:05:36;9.20;;;5.60;;
10389;SDS011;5241;47.830;12.972;2022-10-13T09:08:15;12.23;;;6.10;;
10389;SDS011;5241;47.830;12.972;2022-10-13T09:10:47;10.97;;;5.80;;
10389;SDS011;5241;47.830;12.972;2022-10-13T09:13:17;7.63;;;5.47;;
10389;SDS011;5241;47.830;12.972;2022-10-13T09:15:44;11.00;;;6.33;;
10389;SDS011;5241;47.830;12.972;2022-10-13T09:18:11;7.53;;;5.90;;
10389;SDS011;5241;47.830;12.972;2022-10-13T09:20:38;11.13;;;6.20;;
10389;SDS011;5241;47.830;12.972;2022-10-13T09:25:38;9.67;;;6.53;;
10389;SDS011;5241;47.830;12.972;2022-10-13T09:28:09;11.40;;;6.47;;
10389;SDS011;5241;47.830;12.972;2022-10-13T09:30:44;9.30;;;6.43;;
10389;SDS011;5241;47.830;12.972;2022-10-13T09:35:40;10.10;;;6.70;;
10389;SDS011;5241;47.830;12.972;2022-10-13T09:40:54;7.37;;;6.27;;
10389;SDS011;5241;47.830;12.972;2022-10-13T09:43:27;10.30;;;6.20;;
10389;SDS011;5241;47.830;12.972;2022-10-13T09:45:56;8.20;;;5.67;;
10389;SDS011;5241;47.830;12.972;2022-10-13T09:48:24;11.40;;;6.33;;
10389;SDS011;5241;47.830;12.972;2022-10-13T09:50:53;9.37;;;7.00;;
10389;SDS011;5241;47.830;12.972;2022-10-13T09:53:39;9.53;;;6.80;;
10389;SDS011;5241;47.830;12.972;2022-10-13T09:56:17;10.07;;;6.53;;
10389;SDS011;5241;47.830;12.972;2022-10-13T09:58:51;11.50;;;6.53;;
10389;SDS011;5241;47.830;12.972;2022-10-13T10:01:24;8.90;;;6.37;;
10389;SDS011;5241;47.830;12.972;2022-10-13T10:03:53;8.77;;;5.57;;
10389;SDS011;5241;47.830;12.972;2022-10-13T10:06:19;10.40;;;6.80;;
10389;SDS011;5241;47.830;12.972;2022-10-13T10:08:51;11.23;;;6.73;;
10389;SDS011;5241;47.830;12.972;2022-10-13T10:11:43;11.47;;;7.00;;
10389;SDS011;5241;47.830;12.972;2022-10-13T10:14:32;12.97;;;6.73;;
10389;SDS011;5241;47.830;12.972;2022-10-13T10:22:39;10.33;;;6.87;;
10389;SDS011;5241;47.830;12.972;2022-10-13T10:33:26;13.80;;;7.20;;
10389;SDS011;5241;47.830;12.972;2022-10-13T10:36:07;9.37;;;6.60;;
10389;SDS011;5241;47.830;12.972;2022-10-13T10:41:25;7.80;;;6.60;;
10389;SDS011;5241;47.830;12.972;2022-10-13T10:44:04;10.30;;;7.07;;
10389;SDS011;5241;47.830;12.972;2022-10-13T10:47:06;7.40;;;5.93;;
10389;SDS011;5241;47.830;12.972;2022-10-13T10:49:44;11.43;;;6.60;;
10389;SDS011;5241;47.830;12.972;2022-10-13T10:52:15;9.20;;;6.30;;
10389;SDS011;5241;47.830;12.972;2022-10-13T10:57:34;11.03;;;7.10;;
10389;SDS011;5241;47.830;12.972;2022-10-13T11:00:20;8.90;;;6.60;;
10389;SDS011;5241;47.830;12.972;2022-10-13T11:02:55;9.30;;;6.37;;
10389;SDS011;5241;47.830;12.972;2022-10-13T11:05:57;12.43;;;6.93;;
10389;SDS011;5241;47.830;12.972;2022-10-13T11:08:27;10.10;;;6.13;;
10389;SDS011;5241;47.830;12.972;2022-10-13T11:13:53;8.67;;;6.63;;
10389;SDS011;5241;47.830;12.972;2022-10-13T11:16:31;10.90;;;7.20;;
10389;SDS011;5241;47.830;12.972;2022-10-13T11:19:35;12.17;;;6.47;;
10389;SDS011;5241;47.830;12.972;2022-10-13T11:32:58;15.17;;;7.00;;
10389;SDS011;5241;47.830;12.972;2022-10-13T11:34:59;10.10;;;6.67;;
10389;SDS011;5241;47.830;12.972;2022-10-13T11:57:18;11.47;;;6.23;;
10389;SDS011;5241;47.830;12.972;2022-10-13T11:59:49;9.80;;;6.17;;
10389;SDS011;5241;47.830;12.972;2022-10-13T12:02:19;9.70;;;5.83;;
10389;SDS011;5241;47.830;12.972;2022-10-13T12:07:44;9.13;;;5.73;;
10389;SDS011;5241;47.830;12.972;2022-10-13T12:10:20;9.70;;;7.20;;
10389;SDS011;5241;47.830;12.972;2022-10-13T12:12:53;11.90;;;6.43;;
10389;SDS011;5241;47.830;12.972;2022-10-13T12:15:39;11.90;;;6.47;;
10389;SDS011;5241;47.830;12.972;2022-10-13T12:18:23;10.97;;;6.23;;
10389;SDS011;5241;47.830;12.972;2022-10-13T12:20:55;9.53;;;6.50;;
10389;SDS011;5241;47.830;12.972;2022-10-13T12:23:23;12.30;;;7.00;;
10389;SDS011;5241;47.830;12.972;2022-10-13T12:25:50;12.20;;;6.70;;
10389;SDS011;5241;47.830;12.972;2022-10-13T12:28:22;11.20;;;6.37;;
10389;SDS011;5241;47.830;12.972;2022-10-13T12:30:56;13.70;;;7.67;;
10389;SDS011;5241;47.830;12.972;2022-10-13T12:33:30;10.97;;;7.13;;
10389;SDS011;5241;47.830;12.972;2022-10-13T12:36:12;10.50;;;6.90;;
10389;SDS011;5241;47.830;12.972;2022-10-13T12:38:42;9.80;;;6.93;;
10389;SDS011;5241;47.830;12.972;2022-10-13T12:41:23;12.40;;;7.37;;
10389;SDS011;5241;47.830;12.972;2022-10-13T12:43:51;13.63;;;8.33;;
10389;SDS011;5241;47.830;12.972;2022-10-13T12:49:03;7.63;;;6.77;;
10389;SDS011;5241;47.830;12.972;2022-10-13T12:51:36;11.87;;;7.07;;
10389;SDS011;5241;47.830;12.972;2022-10-13T12:54:07;12.33;;;7.17;;
10389;SDS011;5241;47.830;12.972;2022-10-13T12:56:41;12.07;;;7.70;;
10389;SDS011;5241;47.830;12.972;2022-10-13T12:59:12;17.60;;;7.80;;
10389;SDS011;5241;47.830;12.972;2022-10-13T13:01:43;9.77;;;7.87;;
10389;SDS011;5241;47.830;12.972;2022-10-13T13:04:16;13.87;;;7.70;;
10389;SDS011;5241;47.830;12.972;2022-10-13T13:12:44;10.17;;;7.20;;
10389;SDS011;5241;47.830;12.972;2022-10-13T13:17:49;13.67;;;7.60;;
10389;SDS011;5241;47.830;12.972;2022-10-13T13:22:57;9.57;;;7.67;;
10389;SDS011;5241;47.830;12.972;2022-10-13T13:25:23;12.33;;;8.40;;
10389;SDS011;5241;47.830;12.972;2022-10-13T13:27:49;15.37;;;7.80;;
10389;SDS011;5241;47.830;12.972;2022-10-13T13:30:17;12.37;;;8.00;;
10389;SDS011;5241;47.830;12.972;2022-10-13T13:32:45;16.03;;;8.30;;
10389;SDS011;5241;47.830;12.972;2022-10-13T13:35:10;11.40;;;7.53;;
10389;SDS011;5241;47.830;12.972;2022-10-13T13:37:37;13.10;;;8.07;;
10389;SDS011;5241;47.830;12.972;2022-10-13T13:40:07;9.53;;;7.23;;
10389;SDS011;5241;47.830;12.972;2022-10-13T13:42:39;10.17;;;7.90;;
10389;SDS011;5241;47.830;12.972;2022-10-13T13:45:04;10.43;;;7.63;;
10389;SDS011;5241;47.830;12.972;2022-10-13T13:47:30;8.57;;;7.63;;
10389;SDS011;5241;47.830;12.972;2022-10-13T13:49:56;10.53;;;7.80;;
10389;SDS011;5241;47.830;12.972;2022-10-13T13:52:22;11.63;;;7.83;;
10389;SDS011;5241;47.830;12.972;2022-10-13T13:54:49;11.73;;;7.80;;
10389;SDS011;5241;47.830;12.972;2022-10-13T13:57:16;12.47;;;8.67;;
10389;SDS011;5241;47.830;12.972;2022-10-13T13:59:42;12.27;;;8.13;;
10389;SDS011;5241;47.830;12.972;2022-10-13T14:02:12;14.47;;;7.60;;
10389;SDS011;5241;47.830;12.972;2022-10-13T14:04:40;13.80;;;8.60;;
10389;SDS011;5241;47.830;12.972;2022-10-13T14:07:06;10.43;;;7.63;;
10389;SDS011;5241;47.830;12.972;2022-10-13T14:09:32;13.47;;;8.73;;
10389;SDS011;5241;47.830;12.972;2022-10-13T14:11:57;11.37;;;7.53;;
10389;SDS011;5241;47.830;12.972;2022-10-13T14:14:23;12.33;;;8.20;;
10389;SDS011;5241;47.830;12.972;2022-10-13T14:16:49;10.57;;;8.17;;
10389;SDS011;5241;47.830;12.972;2022-10-13T14:19:15;12.57;;;8.80;;
10389;SDS011;5241;47.830;12.972;2022-10-13T14:21:40;13.30;;;7.67;;
10389;SDS011;5241;47.830;12.972;2022-10-13T14:24:06;11.80;;;8.23;;
10389;SDS011;5241;47.830;12.972;2022-10-13T14:26:32;11.77;;;8.40;;
10389;SDS011;5241;47.830;12.972;2022-10-13T14:28:57;12.07;;;7.73;;
10389;SDS011;5241;47.830;12.972;2022-10-13T14:31:23;14.33;;;8.83;;
10389;SDS011;5241;47.830;12.972;2022-10-13T14:33:49;12.50;;;8.03;;
10389;SDS011;5241;47.830;12.972;2022-10-13T14:36:14;14.07;;;9.43;;
10389;SDS011;5241;47.830;12.972;2022-10-13T14:38:40;13.00;;;9.00;;
10389;SDS011;5241;47.830;12.972;2022-10-13T14:41:06;14.33;;;9.03;;
10389;SDS011;5241;47.830;12.972;2022-10-13T14:43:31;13.13;;;8.40;;
10389;SDS011;5241;47.830;12.972;2022-10-13T14:46:04;13.60;;;8.50;;
10389;SDS011;5241;47.830;12.972;2022-10-13T14:48:31;12.83;;;8.37;;
10389;SDS011;5241;47.830;12.972;2022-10-13T14:50:57;12.27;;;8.80;;
10389;SDS011;5241;47.830;12.972;2022-10-13T14:53:23;12.67;;;8.57;;
10389;SDS011;5241;47.830;12.972;2022-10-13T14:55:50;15.30;;;8.63;;
10389;SDS011;5241;47.830;12.972;2022-10-13T14:58:16;9.57;;;8.07;;
10389;SDS011;5241;47.830;12.972;2022-10-13T15:00:42;14.67;;;7.43;;
10389;SDS011;5241;47.830;12.972;2022-10-13T15:03:08;14.10;;;8.13;;
10389;SDS011;5241;47.830;12.972;2022-10-13T15:05:33;15.50;;;8.40;;
10389;SDS011;5241;47.830;12.972;2022-10-13T15:07:59;10.43;;;7.97;;
10389;SDS011;5241;47.830;12.972;2022-10-13T15:10:25;18.87;;;15.83;;
10389;SDS011;5241;47.830;12.972;2022-10-13T15:12:50;13.83;;;10.70;;
10389;SDS011;5241;47.830;12.972;2022-10-13T15:15:16;14.13;;;10.47;;
10389;SDS011;5241;47.830;12.972;2022-10-13T15:17:41;12.57;;;8.80;;
10389;SDS011;5241;47.830;12.972;2022-10-13T15:20:07;14.30;;;8.63;;
10389;SDS011;5241;47.830;12.972;2022-10-13T15:22:33;18.63;;;9.70;;
10389;SDS011;5241;47.830;12.972;2022-10-13T15:24:58;13.30;;;9.30;;
10389;SDS011;5241;47.830;12.972;2022-10-13T15:27:24;12.87;;;7.70;;
10389;SDS011;5241;47.830;12.972;2022-10-13T15:29:50;13.70;;;7.90;;
10389;SDS011;5241;47.830;12.972;2022-10-13T15:32:16;11.57;;;8.73;;
10389;SDS011;5241;47.830;12.972;2022-10-13T15:34:45;10.87;;;8.60;;
10389;SDS011;5241;47.830;12.972;2022-10-13T15:37:11;18.80;;;14.40;;
10389;SDS011;5241;47.830;12.972;2022-10-13T15:39:37;15.67;;;11.00;;
10389;SDS011;5241;47.830;12.972;2022-10-13T15:42:03;14.07;;;10.23;;
10389;SDS011;5241;47.830;12.972;2022-10-13T15:44:29;19.97;;;10.90;;
10389;SDS011;5241;47.830;12.972;2022-10-13T15:46:57;12.00;;;9.93;;
10389;SDS011;5241;47.830;12.972;2022-10-13T15:49:23;15.73;;;10.67;;
10389;SDS011;5241;47.830;12.972;2022-10-13T15:51:49;15.23;;;9.87;;
10389;SDS011;5241;47.830;12.972;2022-10-13T15:54:16;14.63;;;10.10;;
10389;SDS011;5241;47.830;12.972;2022-10-13T15:56:42;19.60;;;13.57;;
10389;SDS011;5241;47.830;12.972;2022-10-13T15:59:08;20.23;;;12.53;;
10389;SDS011;5241;47.830;12.972;2022-10-13T16:01:34;24.30;;;19.20;;
10389;SDS011;5241;47.830;12.972;2022-10-13T16:04:00;13.87;;;10.53;;
10389;SDS011;5241;47.830;12.972;2022-10-13T16:06:25;14.63;;;9.83;;
10389;SDS011;5241;47.830;12.972;2022-10-13T16:08:51;12.27;;;9.40;;
10389;SDS011;5241;47.830;12.972;2022-10-13T16:11:18;14.47;;;10.20;;
10389;SDS011;5241;47.830;12.972;2022-10-13T16:13:45;14.97;;;9.00;;
10389;SDS011;5241;47.830;12.972;2022-10-13T16:16:12;14.40;;;9.20;;
10389;SDS011;5241;47.830;12.972;2022-10-13T16:18:39;13.07;;;8.80;;
10389;SDS011;5241;47.830;12.972;2022-10-13T16:21:18;16.83;;;10.37;;